Terminal Aerodrome Forecast
Issued by NWS Grand Rapids, MI

Home | Current Version | Previous Version | Text Only | Print | Product List | Glossary On
Versions: 1 2 3 4 5 6 7 8 9 10 11 12 13 14 15 16 17 18 19
000
FTUS43 KGRR 012340
TAFGRR
TAF
KGRR 012340Z 0200/0224 06013KT P6SM OVC015
     FM020200 05012KT P6SM -RA OVC015
     FM020600 04008KT P6SM OVC015
     FM021300 03009KT P6SM BKN025
     FM021500 04008KT P6SM OVC035=

USA.gov is the U.S. government's official web portal to all federal, state and local government web resources and services.